| time (UTC) | temp C | wind direction | speed KPH | gust KPH | rain 1hr cm | rain 24hr cm | rain mn cm | humidity % | barometer mb |
| 20260906043826 | 22 | 206 | 1.6 | 1.6 | 0.00 | 0.00 | 0.00 | 99 | 1013.4 |
| 20260906043320 | 22 | 198 | 0.0 | 0.0 | 0.00 | 0.00 | 0.00 | 99 | 1013.3 |
| 20260906042820 | 22 | 170 | 0.0 | 0.0 | 0.00 | 0.00 | 0.00 | 99 | 1013.3 |
| 20260906042319 | 22 | 170 | 0.0 | 0.0 | 0.00 | 0.00 | 0.00 | 99 | 1013.3 |
| 20260906041815 | 22 | 170 | 0.0 | 0.0 | 0.00 | 0.00 | 0.00 | 99 | 1013.3 |
| 20260906041310 | 22 | 188 | 0.0 | 0.0 | 0.00 | 0.00 | 0.00 | 99 | 1013.4 |
| 20260906040805 | 23 | 188 | 0.0 | 0.0 | 0.00 | 0.00 | 0.00 | 99 | 1013.3 |
| 20260906040300 | 23 | 187 | 0.0 | 0.0 | 0.00 | 0.00 | 0.00 | 99 | 1013.5 |
| 20260906035756 | 23 | 187 | 0.0 | 0.0 | 0.00 | 0.86 | 0.86 | 99 | 1013.3 |
| 20260906035251 | 23 | 183 | 0.0 | 0.0 | 0.00 | 0.86 | 0.86 | 99 | 1013.3 |
| 20260906034751 | 23 | 200 | 1.6 | 1.6 | 0.00 | 0.86 | 0.86 | 99 | 1013.4 |
| 20260906034246 | 23 | 156 | 0.0 | 1.6 | 0.00 | 0.86 | 0.86 | 99 | 1013.6 |
| 20260906033742 | 23 | 182 | 0.0 | 0.0 | 0.00 | 0.86 | 0.86 | 98 | 1013.7 |
| 20260906033242 | 23 | 171 | 0.0 | 0.0 | 0.00 | 0.86 | 0.86 | 98 | 1013.5 |
| 20260906032738 | 23 | 146 | 0.0 | 0.0 | 0.00 | 0.86 | 0.86 | 98 | 1013.5 |
| 20260906032238 | 23 | 175 | 0.0 | 0.0 | 0.00 | 0.86 | 0.86 | 98 | 1013.6 |
| 20260906031733 | 23 | 165 | 0.0 | 0.0 | 0.00 | 0.86 | 0.86 | 98 | 1013.8 |
| 20260906031229 | 23 | 169 | 0.0 | 0.0 | 0.00 | 0.86 | 0.86 | 98 | 1013.7 |
| 20260906030729 | 23 | 176 | 0.0 | 0.0 | 0.00 | 0.86 | 0.86 | 98 | 1013.7 |
| 20260906030224 | 23 | 176 | 0.0 | 0.0 | 0.00 | 0.86 | 0.86 | 98 | 1013.7 |
| 20260906025723 | 23 | 187 | 0.0 | 0.0 | 0.00 | 0.86 | 0.86 | 98 | 1013.7 |
| 20260906025218 | 23 | 191 | 0.0 | 0.0 | 0.00 | 0.86 | 0.86 | 98 | 1013.4 |
| 20260906024717 | 23 | 157 | 0.0 | 0.0 | 0.00 | 0.86 | 0.86 | 98 | 1013.6 |
| 20260906024216 | 23 | 188 | 0.0 | 0.0 | 0.00 | 0.86 | 0.86 | 98 | 1013.6 |
| 20260906023713 | 23 | 178 | 0.0 | 0.0 | 0.00 | 0.86 | 0.86 | 98 | 1013.7 |
| 20260906023213 | 23 | 174 | 0.0 | 0.0 | 0.00 | 0.86 | 0.86 | 98 | 1013.5 |
| 20260906022708 | 23 | 183 | 0.0 | 0.0 | 0.00 | 0.86 | 0.86 | 98 | 1013.7 |
| 20260906022203 | 23 | 183 | 0.0 | 0.0 | 0.00 | 0.86 | 0.86 | 98 | 1013.5 |
| 20260906021659 | 23 | 158 | 1.6 | 1.6 | 0.00 | 0.86 | 0.86 | 98 | 1013.3 |
| 20260906021158 | 23 | 152 | 6.4 | 6.4 | 0.00 | 0.86 | 0.86 | 99 | 1013.4 |
| 20260906020653 | 23 | 177 | 0.0 | 0.0 | 0.00 | 0.86 | 0.86 | 99 | 1013.5 |
| 20260906020148 | 23 | 153 | 4.8 | 6.4 | 0.00 | 0.86 | 0.86 | 99 | 1013.6 |
| 20260906015648 | 23 | 168 | 1.6 | 1.6 | 0.00 | 0.86 | 0.86 | 99 | 1013.4 |
| 20260906015147 | 23 | 195 | 1.6 | 1.6 | 0.00 | 0.86 | 0.86 | 99 | 1013.1 |
| 20260906014646 | 23 | 174 | 0.0 | 0.0 | 0.00 | 0.86 | 0.86 | 99 | 1012.9 |
| 20260906014142 | 23 | 173 | 0.0 | 0.0 | 0.00 | 0.86 | 0.86 | 99 | 1012.8 |
| 20260906013638 | 23 | 185 | 0.0 | 0.0 | 0.00 | 0.86 | 0.86 | 99 | 1012.8 |
| 20260906013134 | 23 | 198 | 1.6 | 1.6 | 0.00 | 0.86 | 0.86 | 99 | 1013.0 |
| 20260906012633 | 23 | 164 | 0.0 | 0.0 | 0.00 | 0.86 | 0.86 | 99 | 1013.1 |
| 20260906012128 | 24 | 188 | 0.0 | 0.0 | 0.00 | 0.86 | 0.86 | 99 | 1012.8 |
| 20260906011624 | 24 | 188 | 0.0 | 0.0 | 0.00 | 0.86 | 0.86 | 99 | 1013.1 |
| 20260906011124 | 24 | 161 | 0.0 | 0.0 | 0.00 | 0.86 | 0.86 | 99 | 1013.1 |
| 20260906010620 | 24 | 190 | 0.0 | 0.0 | 0.00 | 0.86 | 0.86 | 98 | 1013.0 |
| 20260906010116 | 24 | 203 | 1.6 | 1.6 | 0.00 | 0.86 | 0.86 | 98 | 1012.8 |
| 20260906005615 | 24 | 194 | 0.0 | 1.6 | 0.00 | 0.86 | 0.86 | 98 | 1012.8 |
| 20260906005115 | 24 | 180 | 1.6 | 1.6 | 0.00 | 0.86 | 0.86 | 98 | 1012.7 |
| 20260906004614 | 24 | 165 | 0.0 | 0.0 | 0.00 | 0.86 | 0.86 | 97 | 1012.5 |
| 20260906004108 | 24 | 164 | 0.0 | 0.0 | 0.00 | 0.86 | 0.86 | 97 | 1012.5 |
| 20260906003604 | 24 | 180 | 0.0 | 0.0 | 0.00 | 0.86 | 0.86 | 97 | 1012.4 |
| 20260906003101 | 24 | 161 | 0.0 | 0.0 | 0.00 | 0.86 | 0.86 | 97 | 1012.4 |
| 20260906002600 | 24 | 157 | 0.0 | 0.0 | 0.00 | 0.86 | 0.86 | 96 | 1012.4 |
| 20260906002055 | 24 | 155 | 0.0 | 0.0 | 0.00 | 0.86 | 0.86 | 96 | 1012.4 |
| 20260906001551 | 24 | 171 | 0.0 | 0.0 | 0.00 | 0.86 | 0.86 | 95 | 1012.3 |
| 20260906001051 | 25 | 187 | 0.0 | 0.0 | 0.00 | 0.86 | 0.86 | 95 | 1012.2 |
| 20260906000547 | 25 | 187 | 0.0 | 0.0 | 0.00 | 0.86 | 0.86 | 95 | 1012.4 |
| 20260906000042 | 25 | 188 | 0.0 | 0.0 | 0.00 | 0.86 | 0.86 | 94 | 1012.1 |
| 20260905235542 | 25 | 174 | 0.0 | 1.6 | 0.00 | 0.86 | 0.86 | 94 | 1012.3 |
| 20260905235042 | 25 | 165 | 1.6 | 1.6 | 0.00 | 0.86 | 0.86 | 94 | 1012.0 |
| 20260905234537 | 25 | 159 | 0.0 | 1.6 | 0.00 | 0.86 | 0.86 | 94 | 1012.1 |
| 20260905234033 | 25 | 154 | 0.0 | 0.0 | 0.00 | 0.86 | 0.86 | 93 | 1012.2 |
| 20260905233532 | 25 | 164 | 0.0 | 0.0 | 0.00 | 0.86 | 0.86 | 92 | 1012.1 |
| 20260905233032 | 25 | 256 | 0.0 | 0.0 | 0.00 | 0.86 | 0.86 | 91 | 1012.1 |
| 20260905232528 | 25 | 184 | 0.0 | 0.0 | 0.00 | 0.86 | 0.86 | 91 | 1012.1 |
| 20260905232024 | 26 | 184 | 0.0 | 0.0 | 0.00 | 0.86 | 0.86 | 91 | 1011.7 |
| 20260905231519 | 26 | 188 | 0.0 | 0.0 | 0.00 | 0.86 | 0.86 | 91 | 1012.2 |
| 20260905231015 | 26 | 190 | 0.0 | 0.0 | 0.00 | 0.86 | 0.86 | 90 | 1011.8 |
| 20260905230514 | 26 | 203 | 1.6 | 1.6 | 0.00 | 0.86 | 0.86 | 90 | 1012.2 |
| 20260905230012 | 26 | 235 | 4.8 | 4.8 | 0.00 | 0.86 | 0.86 | 91 | 1012.1 |
| 20260905225507 | 26 | 211 | 3.2 | 4.8 | 0.00 | 0.86 | 0.86 | 92 | 1012.3 |
| 20260905225002 | 26 | 202 | 3.2 | 4.8 | 0.00 | 0.86 | 0.86 | 92 | 1012.2 |
| 20260905224457 | 26 | 196 | 1.6 | 1.6 | 0.00 | 0.86 | 0.86 | 92 | 1012.1 |
| 20260905223956 | 26 | 207 | 3.2 | 4.8 | 0.00 | 0.86 | 0.86 | 91 | 1012.3 |
| 20260905223454 | 26 | 199 | 0.0 | 1.6 | 0.00 | 0.86 | 0.86 | 90 | 1012.2 |
| 20260905222950 | 26 | 209 | 1.6 | 1.6 | 0.00 | 0.86 | 0.86 | 89 | 1012.3 |
| 20260905222449 | 26 | 193 | 0.0 | 0.0 | 0.00 | 0.86 | 0.86 | 88 | 1012.1 |
| 20260905221945 | 26 | 189 | 0.0 | 0.0 | 0.00 | 0.86 | 0.86 | 89 | 1012.1 |
| 20260905221441 | 26 | 119 | 3.2 | 4.8 | 0.00 | 0.86 | 0.86 | 90 | 1012.2 |
| 20260905220937 | 26 | 195 | 0.0 | 1.6 | 0.00 | 0.86 | 0.86 | 92 | 1012.1 |
| 20260905220433 | 26 | 195 | 3.2 | 4.8 | 0.00 | 0.86 | 0.86 | 92 | 1012.4 |
| 20260905215932 | 26 | 195 | 0.0 | 0.0 | 0.00 | 0.86 | 0.86 | 93 | 1012.3 |
| 20260905215428 | 26 | 201 | 1.6 | 1.6 | 0.00 | 0.86 | 0.86 | 92 | 1012.6 |
| 20260905214924 | 26 | 163 | 0.0 | 0.0 | 0.00 | 0.86 | 0.86 | 92 | 1012.6 |
| 20260905214420 | 25 | 188 | 0.0 | 0.0 | 0.00 | 0.86 | 0.86 | 92 | 1012.5 |
| 20260905213919 | 26 | 202 | 6.4 | 6.4 | 0.00 | 0.86 | 0.86 | 93 | 1012.7 |
| 20260905213416 | 26 | 187 | 0.0 | 1.6 | 0.00 | 0.86 | 0.86 | 92 | 1012.6 |
| 20260905212911 | 25 | 195 | 0.0 | 1.6 | 0.00 | 0.86 | 0.86 | 93 | 1012.5 |
| 20260905212406 | 26 | 144 | 3.2 | 4.8 | 0.00 | 0.86 | 0.86 | 92 | 1012.8 |
| 20260905211905 | 26 | 185 | 0.0 | 0.0 | 0.00 | 0.86 | 0.86 | 93 | 1012.8 |
| 20260905211401 | 25 | 181 | 0.0 | 1.6 | 0.00 | 0.86 | 0.86 | 93 | 1013.1 |
| 20260905210857 | 25 | 209 | 1.6 | 1.6 | 0.00 | 0.86 | 0.86 | 93 | 1013.2 |
| 20260905210357 | 25 | 208 | 3.2 | 4.8 | 0.00 | 0.86 | 0.86 | 93 | 1012.9 |
| 20260905205856 | 25 | 155 | 0.0 | 0.0 | 0.00 | 0.86 | 0.86 | 93 | 1013.0 |
| 20260905205351 | 25 | 146 | 0.0 | 1.6 | 0.00 | 0.86 | 0.86 | 94 | 1012.7 |
| 20260905204850 | 25 | 66 | 8.0 | 11.3 | 0.00 | 0.86 | 0.86 | 93 | 1012.7 |
| 20260905204346 | 25 | 80 | 1.6 | 4.8 | 0.00 | 0.86 | 0.86 | 93 | 1012.8 |
| 20260905203844 | 25 | 35 | 4.8 | 4.8 | 0.00 | 0.86 | 0.86 | 93 | 1012.8 |
| 20260905203341 | 25 | 3 | 3.2 | 4.8 | 0.00 | 0.86 | 0.86 | 93 | 1012.9 |
| 20260905202836 | 25 | 320 | 4.8 | 6.4 | 0.00 | 0.86 | 0.86 | 95 | 1012.9 |
| 20260905202331 | 25 | 160 | 0.0 | 1.6 | 0.00 | 0.86 | 0.86 | 95 | 1013.1 |
| 20260905201827 | 24 | 265 | 4.8 | 4.8 | 0.00 | 0.86 | 0.86 | 95 | 1013.1 |
| 20260905201323 | 25 | 217 | 1.6 | 4.8 | 0.00 | 0.86 | 0.86 | 95 | 1013.1 |
| 20260905200822 | 25 | 191 | 1.6 | 1.6 | 0.00 | 0.86 | 0.86 | 95 | 1013.1 |
| 20260905200318 | 24 | 161 | 0.0 | 0.0 | 0.00 | 0.86 | 0.86 | 96 | 1012.9 |
| 20260905195816 | 24 | 146 | 0.0 | 1.6 | 0.00 | 0.86 | 0.86 | 96 | 1012.8 |
| 20260905195311 | 23 | 160 | 4.8 | 6.4 | 0.00 | 0.86 | 0.86 | 95 | 1012.7 |
| 20260905194808 | 23 | 158 | 4.8 | 4.8 | 0.00 | 0.86 | 0.86 | 94 | 1012.7 |
| 20260905194307 | 23 | 178 | 1.6 | 6.4 | 0.18 | 0.86 | 0.86 | 93 | 1012.4 |
| 20260905193806 | 23 | 176 | 0.0 | 1.6 | 0.97 | 0.86 | 0.86 | 92 | 1012.3 |
| 20260905193301 | 23 | 169 | 6.4 | 8.0 | 4.75 | 0.84 | 0.84 | 90 | 1012.6 |
| 20260905192756 | 23 | 222 | 4.8 | 6.4 | 4.45 | 0.74 | 0.74 | 87 | 1012.7 |
| 20260905192252 | 25 | 240 | 6.4 | 6.4 | 0.48 | 0.08 | 0.08 | 86 | 1013.6 |
| 20260905191751 | 26 | 222 | 4.8 | 8.0 | 0.00 | 0.00 | 0.00 | 80 | 1013.7 |
| 20260905191250 | 27 | 324 | 12.9 | 17.7 | 0.00 | 0.00 | 0.00 | 73 | 1013.6 |
| 20260905190749 | 28 | 330 | 8.0 | 11.3 | 0.00 | 0.00 | 0.00 | 68 | 1014.1 |
| 20260905190248 | 31 | 339 | 19.3 | 22.5 | 0.00 | 0.00 | 0.00 | 65 | 1013.6 |
| 20260905185747 | 32 | 115 | 1.6 | 1.6 | 0.00 | 0.00 | 0.00 | 68 | 1012.8 |
| 20260905185242 | 32 | 25 | 1.6 | 1.6 | 0.00 | 0.00 | 0.00 | 67 | 1012.9 |
| 20260905184736 | 32 | 355 | 4.8 | 6.4 | 0.00 | 0.00 | 0.00 | 64 | 1013.0 |
| 20260905184236 | 32 | 343 | 6.4 | 8.0 | 0.00 | 0.00 | 0.00 | 62 | 1012.8 |
| 20260905183735 | 33 | 325 | 3.2 | 4.8 | 0.00 | 0.00 | 0.00 | 62 | 1012.7 |
| 20260905183231 | 33 | 311 | 1.6 | 1.6 | 0.00 | 0.00 | 0.00 | 62 | 1012.6 |
| 20260905182730 | 33 | 12 | 1.6 | 1.6 | 0.00 | 0.00 | 0.00 | 62 | 1012.8 |
| 20260905182230 | 33 | 205 | 1.6 | 1.6 | 0.00 | 0.00 | 0.00 | 61 | 1012.8 |
| 20260905181725 | 34 | 90 | 3.2 | 4.8 | 0.00 | 0.00 | 0.00 | 60 | 1012.5 |
| 20260905181224 | 34 | 103 | 4.8 | 6.4 | 0.00 | 0.00 | 0.00 | 58 | 1012.8 |
| 20260905180719 | 35 | 226 | 4.8 | 6.4 | 0.00 | 0.00 | 0.00 | 59 | 1012.8 |
| 20260905180215 | 35 | 149 | 1.6 | 1.6 | 0.00 | 0.00 | 0.00 | 61 | 1013.0 |
| 20260905175714 | 34 | 273 | 4.8 | 4.8 | 0.00 | 0.00 | 0.00 | 60 | 1013.0 |
| 20260905175209 | 34 | 275 | 4.8 | 4.8 | 0.00 | 0.00 | 0.00 | 60 | 1012.9 |
| 20260905174704 | 34 | 165 | 0.0 | 1.6 | 0.00 | 0.00 | 0.00 | 60 | 1013.2 |
| 20260905174200 | 34 | 67 | 11.3 | 12.9 | 0.00 | 0.00 | 0.00 | 59 | 1013.3 |
| 20260905173656 | 34 | 45 | 8.0 | 12.9 | 0.00 | 0.00 | 0.00 | 60 | 1013.5 |
| 20260905173151 | 35 | 94 | 3.2 | 4.8 | 0.00 | 0.00 | 0.00 | 62 | 1013.4 |
| 20260905172651 | 35 | 213 | 4.8 | 4.8 | 0.00 | 0.00 | 0.00 | 59 | 1013.4 |
| 20260905172145 | 35 | 152 | 1.6 | 1.6 | 0.00 | 0.00 | 0.00 | 59 | 1013.7 |
| 20260905171641 | 35 | 5 | 6.4 | 6.4 | 0.00 | 0.00 | 0.00 | 58 | 1013.5 |
| 20260905171137 | 35 | 198 | 4.8 | 6.4 | 0.00 | 0.00 | 0.00 | 60 | 1013.6 |
| 20260905170634 | 34 | 202 | 4.8 | 6.4 | 0.00 | 0.00 | 0.00 | 64 | 1013.6 |
| 20260905170129 | 34 | 231 | 16.1 | 19.3 | 0.00 | 0.00 | 0.00 | 60 | 1013.8 |
| 20260905165629 | 33 | 176 | 1.6 | 1.6 | 0.00 | 0.00 | 0.00 | 63 | 1014.0 |
| 20260905165124 | 33 | 128 | 3.2 | 4.8 | 0.00 | 0.00 | 0.00 | 63 | 1014.0 |
| 20260905164619 | 33 | 171 | 4.8 | 4.8 | 0.00 | 0.00 | 0.00 | 63 | 1014.0 |
| 20260905164118 | 34 | 97 | 8.0 | 8.0 | 0.00 | 0.00 | 0.00 | 65 | 1014.2 |
| 20260905163615 | 34 | 55 | 11.3 | 12.9 | 0.00 | 0.00 | 0.00 | 63 | 1014.3 |
| 20260905163111 | 34 | 150 | 4.8 | 6.4 | 0.00 | 0.00 | 0.00 | 62 | 1014.2 |
| 20260905162607 | 33 | 148 | 3.2 | 4.8 | 0.00 | 0.00 | 0.00 | 63 | 1014.4 |
| 20260905162106 | 33 | 291 | 6.4 | 6.4 | 0.00 | 0.00 | 0.00 | 63 | 1014.5 |
| 20260905161606 | 33 | 79 | 3.2 | 4.8 | 0.00 | 0.00 | 0.00 | 62 | 1014.5 |
| 20260905161104 | 33 | 69 | 1.6 | 1.6 | 0.00 | 0.00 | 0.00 | 63 | 1014.3 |
| 20260905160603 | 33 | 149 | 3.2 | 4.8 | 0.00 | 0.00 | 0.00 | 65 | 1014.6 |
| 20260905155557 | 33 | 312 | 4.8 | 6.4 | 0.00 | 0.00 | 0.00 | 65 | 1014.5 |
| 20260905155056 | 33 | 51 | 3.2 | 4.8 | 0.00 | 0.00 | 0.00 | 66 | 1014.5 |
| 20260905154551 | 32 | 129 | 0.0 | 1.6 | 0.00 | 0.00 | 0.00 | 67 | 1014.7 |
| 20260905154046 | 33 | 76 | 3.2 | 4.8 | 0.00 | 0.00 | 0.00 | 66 | 1014.7 |
| 20260905153542 | 33 | 199 | 1.6 | 1.6 | 0.00 | 0.00 | 0.00 | 66 | 1014.5 |
| 20260905153042 | 33 | 193 | 0.0 | 0.0 | 0.00 | 0.00 | 0.00 | 69 | 1014.6 |
| 20260905152537 | 32 | 346 | 1.6 | 1.6 | 0.00 | 0.00 | 0.00 | 68 | 1014.8 |
| 20260905152032 | 33 | 180 | 1.6 | 1.6 | 0.00 | 0.00 | 0.00 | 68 | 1014.4 |
| 20260905151528 | 32 | 192 | 0.0 | 0.0 | 0.00 | 0.00 | 0.00 | 69 | 1014.7 |
| 20260905151023 | 32 | 205 | 3.2 | 4.8 | 0.00 | 0.00 | 0.00 | 70 | 1014.6 |
| 20260905150518 | 32 | 211 | 3.2 | 4.8 | 0.00 | 0.00 | 0.00 | 70 | 1014.7 |
| 20260905150016 | 32 | 200 | 1.6 | 1.6 | 0.00 | 0.00 | 0.00 | 70 | 1014.8 |
| 20260905145515 | 32 | 178 | 0.0 | 1.6 | 0.00 | 0.00 | 0.00 | 69 | 1014.8 |
| 20260905145015 | 32 | 175 | 0.0 | 1.6 | 0.00 | 0.00 | 0.00 | 70 | 1014.7 |
| 20260905144510 | 32 | 188 | 1.6 | 1.6 | 0.00 | 0.00 | 0.00 | 69 | 1014.5 |
| 20260905144009 | 31 | 177 | 1.6 | 1.6 | 0.00 | 0.00 | 0.00 | 73 | 1014.8 |
| 20260905143508 | 31 | 199 | 1.6 | 1.6 | 0.00 | 0.00 | 0.00 | 73 | 1014.8 |
| 20260905143003 | 31 | 212 | 4.8 | 4.8 | 0.00 | 0.00 | 0.00 | 74 | 1014.8 |
| 20260905142501 | 30 | 188 | 1.6 | 1.6 | 0.00 | 0.00 | 0.00 | 76 | 1014.9 |
| 20260905141957 | 30 | 220 | 3.2 | 4.8 | 0.00 | 0.00 | 0.00 | 77 | 1014.8 |
| 20260905141451 | 30 | 194 | 1.6 | 1.6 | 0.00 | 0.00 | 0.00 | 78 | 1015.0 |
| 20260905140948 | 30 | 230 | 8.0 | 12.9 | 0.00 | 0.00 | 0.00 | 79 | 1015.0 |
| 20260905140443 | 30 | 234 | 4.8 | 4.8 | 0.00 | 0.00 | 0.00 | 78 | 1015.0 |
| 20260905135941 | 30 | 190 | 0.0 | 1.6 | 0.00 | 0.00 | 0.00 | 79 | 1014.9 |
| 20260905135438 | 29 | 206 | 1.6 | 1.6 | 0.00 | 0.00 | 0.00 | 80 | 1015.1 |
| 20260905134933 | 29 | 237 | 4.8 | 6.4 | 0.00 | 0.00 | 0.00 | 80 | 1015.1 |
| 20260905134432 | 28 | 210 | 3.2 | 4.8 | 0.00 | 0.00 | 0.00 | 80 | 1015.1 |
| 20260905133931 | 28 | 219 | 4.8 | 6.4 | 0.00 | 0.00 | 0.00 | 81 | 1015.3 |
| 20260905133426 | 28 | 196 | 1.6 | 1.6 | 0.00 | 0.00 | 0.00 | 82 | 1015.3 |
| 20260905132926 | 28 | 197 | 0.0 | 1.6 | 0.00 | 0.00 | 0.00 | 82 | 1015.3 |
| 20260905132421 | 28 | 199 | 0.0 | 1.6 | 0.00 | 0.00 | 0.00 | 83 | 1015.2 |
| 20260905131916 | 27 | 194 | 0.0 | 0.0 | 0.00 | 0.00 | 0.00 | 83 | 1015.1 |
| 20260905131412 | 27 | 199 | 3.2 | 4.8 | 0.00 | 0.00 | 0.00 | 84 | 1015.1 |
| 20260905130906 | 27 | 195 | 0.0 | 0.0 | 0.00 | 0.00 | 0.00 | 84 | 1015.3 |
| 20260905130406 | 27 | 206 | 1.6 | 1.6 | 0.00 | 0.00 | 0.00 | 84 | 1015.3 |
| 20260905125900 | 27 | 196 | 1.6 | 1.6 | 0.00 | 0.00 | 0.00 | 85 | 1015.2 |
| 20260905125355 | 27 | 201 | 3.2 | 4.8 | 0.00 | 0.00 | 0.00 | 84 | 1015.4 |
| 20260905124851 | 26 | 197 | 0.0 | 0.0 | 0.00 | 0.00 | 0.00 | 85 | 1015.0 |
| 20260905124348 | 26 | 189 | 1.6 | 1.6 | 0.00 | 0.00 | 0.00 | 86 | 1015.1 |
| 20260905123847 | 26 | 188 | 1.6 | 1.6 | 0.00 | 0.00 | 0.00 | 86 | 1014.9 |
| 20260905123344 | 26 | 193 | 0.0 | 0.0 | 0.00 | 0.00 | 0.00 | 89 | 1014.9 |
| 20260905122844 | 25 | 187 | 1.6 | 1.6 | 0.00 | 0.00 | 0.00 | 89 | 1014.9 |
| 20260905122343 | 25 | 200 | 1.6 | 1.6 | 0.00 | 0.00 | 0.00 | 90 | 1015.0 |
| 20260905121839 | 25 | 183 | 0.0 | 0.0 | 0.00 | 0.00 | 0.00 | 91 | 1015.2 |
| 20260905121335 | 25 | 202 | 3.2 | 4.8 | 0.00 | 0.00 | 0.00 | 92 | 1015.1 |
| 20260905120833 | 24 | 192 | 1.6 | 1.6 | 0.00 | 0.00 | 0.00 | 93 | 1015.0 |
| 20260905120329 | 24 | 190 | 1.6 | 1.6 | 0.00 | 0.00 | 0.00 | 94 | 1015.0 |
| 20260905115824 | 23 | 187 | 1.6 | 1.6 | 0.00 | 0.00 | 0.00 | 94 | 1014.9 |
| 20260905115323 | 23 | 183 | 0.0 | 0.0 | 0.00 | 0.00 | 0.00 | 95 | 1014.7 |
| 20260905114823 | 23 | 199 | 3.2 | 4.8 | 0.00 | 0.00 | 0.00 | 95 | 1014.8 |
| 20260905114322 | 23 | 202 | 1.6 | 1.6 | 0.00 | 0.00 | 0.00 | 96 | 1014.8 |
| 20260905113822 | 23 | 181 | 0.0 | 0.0 | 0.00 | 0.00 | 0.00 | 96 | 1014.9 |
| 20260905113317 | 23 | 165 | 0.0 | 0.0 | 0.00 | 0.00 | 0.00 | 96 | 1014.5 |
| 20260905112813 | 23 | 165 | 0.0 | 0.0 | 0.00 | 0.00 | 0.00 | 96 | 1014.5 |
| 20260905112308 | 23 | 190 | 1.6 | 1.6 | 0.00 | 0.00 | 0.00 | 96 | 1014.6 |
| 20260905111803 | 23 | 155 | 1.6 | 1.6 | 0.00 | 0.00 | 0.00 | 96 | 1014.5 |
| 20260905111257 | 23 | 162 | 0.0 | 0.0 | 0.00 | 0.00 | 0.00 | 95 | 1014.4 |
| 20260905110756 | 23 | 163 | 1.6 | 1.6 | 0.00 | 0.00 | 0.00 | 95 | 1014.1 |
| 20260905110250 | 23 | 259 | 4.8 | 6.4 | 0.00 | 0.00 | 0.00 | 96 | 1014.3 |
| 20260905105746 | 23 | 187 | 0.0 | 1.6 | 0.00 | 0.00 | 0.00 | 96 | 1014.2 |
| 20260905105245 | 23 | 183 | 0.0 | 0.0 | 0.00 | 0.00 | 0.00 | 97 | 1013.9 |
| 20260905104740 | 23 | 139 | 0.0 | 0.0 | 0.00 | 0.00 | 0.00 | 96 | 1014.1 |
| 20260905104236 | 23 | 184 | 0.0 | 0.0 | 0.00 | 0.00 | 0.00 | 96 | 1014.0 |
| 20260905103736 | 23 | 184 | 0.0 | 0.0 | 0.00 | 0.00 | 0.00 | 96 | 1014.0 |
| 20260905103232 | 23 | 184 | 0.0 | 0.0 | 0.00 | 0.00 | 0.00 | 96 | 1013.9 |
| 20260905102727 | 23 | 184 | 0.0 | 0.0 | 0.00 | 0.00 | 0.00 | 95 | 1013.8 |
| 20260905102224 | 23 | 184 | 0.0 | 0.0 | 0.00 | 0.00 | 0.00 | 95 | 1014.0 |
| 20260905101723 | 23 | 112 | 0.0 | 1.6 | 0.00 | 0.00 | 0.00 | 95 | 1013.9 |
| 20260905101221 | 23 | 184 | 0.0 | 0.0 | 0.00 | 0.00 | 0.00 | 95 | 1013.7 |
| 20260905100717 | 23 | 184 | 0.0 | 1.6 | 0.00 | 0.00 | 0.00 | 94 | 1014.0 |
| 20260905100212 | 23 | 184 | 0.0 | 0.0 | 0.00 | 0.00 | 0.00 | 94 | 1013.6 |
| 20260905095711 | 23 | 177 | 1.6 | 1.6 | 0.00 | 0.00 | 0.00 | 94 | 1013.9 |
| 20260905095207 | 23 | 183 | 0.0 | 0.0 | 0.00 | 0.00 | 0.00 | 94 | 1013.6 |
| 20260905094707 | 23 | 185 | 0.0 | 1.6 | 0.00 | 0.00 | 0.00 | 93 | 1013.7 |
| 20260905094206 | 23 | 181 | 0.0 | 0.0 | 0.00 | 0.00 | 0.00 | 93 | 1013.8 |
| 20260905093701 | 23 | 181 | 1.6 | 1.6 | 0.00 | 0.00 | 0.00 | 93 | 1013.7 |
| 20260905093157 | 23 | 176 | 0.0 | 0.0 | 0.00 | 0.00 | 0.00 | 92 | 1013.9 |
| 20260905092652 | 23 | 157 | 0.0 | 1.6 | 0.00 | 0.00 | 0.00 | 92 | 1013.7 |
| 20260905092148 | 24 | 161 | 0.0 | 1.6 | 0.00 | 0.00 | 0.00 | 91 | 1013.7 |
| 20260905091647 | 24 | 204 | 1.6 | 1.6 | 0.00 | 0.00 | 0.00 | 91 | 1013.6 |
| 20260905091147 | 24 | 212 | 1.6 | 1.6 | 0.00 | 0.00 | 0.00 | 91 | 1013.6 |
| 20260905090642 | 23 | 198 | 3.2 | 4.8 | 0.00 | 0.00 | 0.00 | 92 | 1013.7 |
| 20260905090138 | 23 | 190 | 3.2 | 4.8 | 0.00 | 0.00 | 0.00 | 94 | 1013.7 |
| 20260905085636 | 23 | 190 | 0.0 | 0.0 | 0.00 | 0.00 | 0.00 | 95 | 1013.8 |
| 20260905085132 | 23 | 174 | 0.0 | 0.0 | 0.00 | 0.00 | 0.00 | 95 | 1013.8 |
| 20260905084631 | 23 | 174 | 0.0 | 0.0 | 0.00 | 0.00 | 0.00 | 95 | 1013.9 |
| 20260905084126 | 23 | 173 | 0.0 | 0.0 | 0.00 | 0.00 | 0.00 | 95 | 1013.9 |
| 20260905083621 | 23 | 165 | 0.0 | 0.0 | 0.00 | 0.00 | 0.00 | 94 | 1014.0 |
| 20260905083118 | 23 | 165 | 0.0 | 0.0 | 0.00 | 0.00 | 0.00 | 94 | 1014.1 |
| 20260905082618 | 23 | 165 | 0.0 | 0.0 | 0.00 | 0.00 | 0.00 | 93 | 1014.2 |
| 20260905082113 | 23 | 165 | 0.0 | 0.0 | 0.00 | 0.00 | 0.00 | 93 | 1014.0 |
| 20260905081608 | 23 | 165 | 0.0 | 0.0 | 0.00 | 0.00 | 0.00 | 93 | 1013.9 |
| 20260905081103 | 23 | 162 | 0.0 | 0.0 | 0.00 | 0.00 | 0.00 | 93 | 1014.1 |
| 20260905080602 | 23 | 158 | 0.0 | 0.0 | 0.00 | 0.00 | 0.00 | 93 | 1014.1 |
| 20260905080057 | 23 | 170 | 0.0 | 0.0 | 0.00 | 0.00 | 0.00 | 93 | 1014.3 |
| 20260905075556 | 24 | 171 | 0.0 | 0.0 | 0.00 | 0.00 | 0.00 | 93 | 1014.4 |
| 20260905075056 | 24 | 171 | 0.0 | 0.0 | 0.00 | 0.00 | 0.00 | 93 | 1014.5 |
| 20260905074555 | 24 | 171 | 0.0 | 0.0 | 0.00 | 0.00 | 0.00 | 92 | 1014.4 |
| 20260905074051 | 24 | 171 | 0.0 | 0.0 | 0.00 | 0.00 | 0.00 | 92 | 1014.5 |
| 20260905073542 | 24 | 169 | 0.0 | 0.0 | 0.00 | 0.00 | 0.00 | 92 | 1014.6 |
| 20260905073037 | 24 | 170 | 0.0 | 0.0 | 0.00 | 0.00 | 0.00 | 92 | 1014.4 |
| 20260905072536 | 24 | 170 | 0.0 | 0.0 | 0.00 | 0.00 | 0.00 | 92 | 1014.4 |
| 20260905072032 | 24 | 169 | 0.0 | 0.0 | 0.00 | 0.00 | 0.00 | 92 | 1014.5 |
| 20260905071529 | 24 | 169 | 0.0 | 0.0 | 0.00 | 0.00 | 0.00 | 91 | 1014.8 |
| 20260905071029 | 24 | 169 | 0.0 | 0.0 | 0.00 | 0.00 | 0.00 | 91 | 1014.9 |
| 20260905070524 | 24 | 170 | 0.0 | 0.0 | 0.00 | 0.00 | 0.00 | 91 | 1014.6 |
| 20260905070020 | 25 | 169 | 0.0 | 0.0 | 0.00 | 0.00 | 0.00 | 91 | 1014.9 |
| 20260905065517 | 25 | 169 | 0.0 | 0.0 | 0.00 | 0.00 | 0.00 | 91 | 1014.9 |
| 20260905065013 | 25 | 170 | 0.0 | 0.0 | 0.00 | 0.00 | 0.00 | 90 | 1014.7 |
| 20260905064513 | 25 | 170 | 0.0 | 0.0 | 0.00 | 0.00 | 0.00 | 90 | 1014.7 |
| 20260905064008 | 25 | 153 | 0.0 | 0.0 | 0.00 | 0.00 | 0.00 | 90 | 1015.0 |
| 20260905063502 | 25 | 153 | 0.0 | 0.0 | 0.00 | 0.00 | 0.00 | 90 | 1014.9 |
| 20260905062959 | 25 | 153 | 0.0 | 0.0 | 0.00 | 0.00 | 0.00 | 89 | 1014.7 |
| 20260905062458 | 25 | 174 | 0.0 | 0.0 | 0.00 | 0.00 | 0.00 | 89 | 1014.9 |
| 20260905061954 | 25 | 174 | 0.0 | 0.0 | 0.00 | 0.00 | 0.00 | 88 | 1014.8 |
| 20260905061454 | 25 | 174 | 0.0 | 0.0 | 0.00 | 0.00 | 0.00 | 88 | 1015.0 |
| 20260905060953 | 25 | 174 | 0.0 | 0.0 | 0.00 | 0.00 | 0.00 | 87 | 1014.9 |
| 20260905060449 | 25 | 174 | 0.0 | 0.0 | 0.00 | 0.00 | 0.00 | 87 | 1015.2 |
| 20260905055949 | 25 | 174 | 0.0 | 0.0 | 0.00 | 0.00 | 0.00 | 86 | 1015.1 |
| 20260905055449 | 25 | 175 | 0.0 | 0.0 | 0.00 | 0.00 | 0.00 | 86 | 1015.1 |
| 20260905054949 | 25 | 172 | 0.0 | 0.0 | 0.00 | 0.00 | 0.00 | 86 | 1015.2 |
| 20260905054444 | 25 | 177 | 0.0 | 0.0 | 0.00 | 0.00 | 0.00 | 86 | 1015.2 |
| 20260905053944 | 25 | 167 | 0.0 | 0.0 | 0.00 | 0.00 | 0.00 | 86 | 1015.2 |
| 20260905053439 | 25 | 160 | 0.0 | 0.0 | 0.00 | 0.00 | 0.00 | 85 | 1015.2 |
| 20260905052936 | 26 | 159 | 0.0 | 0.0 | 0.00 | 0.00 | 0.00 | 85 | 1015.1 |
| 20260905052434 | 26 | 153 | 0.0 | 0.0 | 0.00 | 0.00 | 0.00 | 84 | 1015.2 |
| 20260905051934 | 26 | 173 | 0.0 | 0.0 | 0.00 | 0.00 | 0.00 | 84 | 1015.2 |
| 20260905051430 | 26 | 173 | 0.0 | 0.0 | 0.00 | 0.00 | 0.00 | 82 | 1015.4 |
| 20260905050927 | 26 | 172 | 0.0 | 0.0 | 0.00 | 0.00 | 0.00 | 81 | 1015.2 |
| 20260905050423 | 27 | 171 | 0.0 | 0.0 | 0.00 | 0.00 | 0.00 | 80 | 1015.5 |
| 20260905045919 | 27 | 192 | 0.0 | 0.0 | 0.00 | 0.00 | 0.00 | 79 | 1015.2 |
| 20260905045414 | 27 | 192 | 0.0 | 0.0 | 0.00 | 0.00 | 0.00 | 78 | 1015.1 |
| 20260905044909 | 27 | 196 | 0.0 | 1.6 | 0.00 | 0.00 | 0.00 | 77 | 1015.3 |
| 20260905044404 | 27 | 199 | 3.2 | 4.8 | 0.00 | 0.00 | 0.00 | 78 | 1015.2 |